sensor_id;sensor_type;location;lat;lon;timestamp;P1;durP1;ratioP1;P2;durP2;ratioP2
43676;SDS011;29275;48.800;18.102;2024-03-23T00:53:39;20.75;;;14.00;;
43676;SDS011;29275;48.800;18.102;2024-03-23T00:56:41;18.25;;;13.05;;
43676;SDS011;29275;48.800;18.102;2024-03-23T00:59:43;17.15;;;11.98;;
43676;SDS011;29275;48.800;18.102;2024-03-23T01:02:44;18.52;;;13.25;;
43676;SDS011;29275;48.800;18.102;2024-03-23T01:05:46;19.42;;;13.80;;
43676;SDS011;29275;48.800;18.102;2024-03-23T01:08:47;17.35;;;11.95;;
43676;SDS011;29275;48.800;18.102;2024-03-23T01:11:49;18.20;;;11.85;;
43676;SDS011;29275;48.800;18.102;2024-03-23T01:14:50;21.48;;;14.18;;
43676;SDS011;29275;48.800;18.102;2024-03-23T01:17:52;17.77;;;12.95;;
43676;SDS011;29275;48.800;18.102;2024-03-23T01:20:53;18.30;;;13.07;;
43676;SDS011;29275;48.800;18.102;2024-03-23T01:23:55;17.60;;;12.45;;
43676;SDS011;29275;48.800;18.102;2024-03-23T01:26:56;17.95;;;11.48;;
43676;SDS011;29275;48.800;18.102;2024-03-23T01:30:01;19.48;;;13.13;;
43676;SDS011;29275;48.800;18.102;2024-03-23T01:33:02;16.77;;;11.82;;
43676;SDS011;29275;48.800;18.102;2024-03-23T01:36:04;16.83;;;11.82;;
43676;SDS011;29275;48.800;18.102;2024-03-23T01:39:05;19.73;;;13.52;;
43676;SDS011;29275;48.800;18.102;2024-03-23T01:42:10;20.60;;;12.43;;
43676;SDS011;29275;48.800;18.102;2024-03-23T01:45:11;15.23;;;9.50;;
43676;SDS011;29275;48.800;18.102;2024-03-23T01:48:13;15.85;;;11.43;;
43676;SDS011;29275;48.800;18.102;2024-03-23T01:51:15;13.43;;;9.88;;
43676;SDS011;29275;48.800;18.102;2024-03-23T01:54:16;14.95;;;11.05;;
43676;SDS011;29275;48.800;18.102;2024-03-23T01:57:18;17.02;;;9.35;;
43676;SDS011;29275;48.800;18.102;2024-03-23T02:00:21;15.75;;;10.65;;
43676;SDS011;29275;48.800;18.102;2024-03-23T02:03:24;19.90;;;13.20;;
43676;SDS011;29275;48.800;18.102;2024-03-23T02:06:27;22.15;;;11.07;;
43676;SDS011;29275;48.800;18.102;2024-03-23T02:09:28;15.52;;;10.68;;
43676;SDS011;29275;48.800;18.102;2024-03-23T02:12:31;14.25;;;9.30;;
43676;SDS011;29275;48.800;18.102;2024-03-23T02:15:32;14.80;;;9.60;;
43676;SDS011;29275;48.800;18.102;2024-03-23T02:18:35;18.42;;;11.32;;
43676;SDS011;29275;48.800;18.102;2024-03-23T02:21:36;15.73;;;10.50;;
43676;SDS011;29275;48.800;18.102;2024-03-23T02:24:38;12.57;;;8.30;;
43676;SDS011;29275;48.800;18.102;2024-03-23T02:27:39;14.27;;;10.30;;
43676;SDS011;29275;48.800;18.102;2024-03-23T02:30:42;15.95;;;11.00;;
43676;SDS011;29275;48.800;18.102;2024-03-23T02:33:44;20.85;;;14.77;;
43676;SDS011;29275;48.800;18.102;2024-03-23T02:36:45;18.67;;;12.75;;
43676;SDS011;29275;48.800;18.102;2024-03-23T02:39:47;13.52;;;9.68;;
43676;SDS011;29275;48.800;18.102;2024-03-23T02:42:53;17.03;;;11.47;;
43676;SDS011;29275;48.800;18.102;2024-03-23T02:45:55;17.85;;;10.98;;
43676;SDS011;29275;48.800;18.102;2024-03-23T02:48:56;16.65;;;11.15;;
43676;SDS011;29275;48.800;18.102;2024-03-23T02:51:58;13.75;;;9.40;;
43676;SDS011;29275;48.800;18.102;2024-03-23T02:54:59;15.23;;;10.07;;
43676;SDS011;29275;48.800;18.102;2024-03-23T02:58:02;17.83;;;11.25;;
43676;SDS011;29275;48.800;18.102;2024-03-23T03:01:04;16.10;;;10.93;;
43676;SDS011;29275;48.800;18.102;2024-03-23T03:04:06;17.75;;;11.77;;
43676;SDS011;29275;48.800;18.102;2024-03-23T03:07:07;16.83;;;11.52;;
43676;SDS011;29275;48.800;18.102;2024-03-23T03:10:09;16.30;;;12.48;;
43676;SDS011;29275;48.800;18.102;2024-03-23T03:13:12;14.10;;;10.88;;
43676;SDS011;29275;48.800;18.102;2024-03-23T03:16:13;12.23;;;8.63;;
43676;SDS011;29275;48.800;18.102;2024-03-23T03:19:15;15.80;;;10.95;;
43676;SDS011;29275;48.800;18.102;2024-03-23T03:22:17;13.10;;;8.88;;
43676;SDS011;29275;48.800;18.102;2024-03-23T03:25:28;15.23;;;9.80;;
43676;SDS011;29275;48.800;18.102;2024-03-23T03:28:31;12.23;;;9.05;;
43676;SDS011;29275;48.800;18.102;2024-03-23T03:31:33;14.20;;;10.38;;
43676;SDS011;29275;48.800;18.102;2024-03-23T03:34:37;11.90;;;8.05;;
43676;SDS011;29275;48.800;18.102;2024-03-23T03:37:39;14.80;;;10.05;;
43676;SDS011;29275;48.800;18.102;2024-03-23T03:40:41;14.32;;;9.80;;
43676;SDS011;29275;48.800;18.102;2024-03-23T03:43:43;12.40;;;9.20;;
43676;SDS011;29275;48.800;18.102;2024-03-23T03:46:44;11.88;;;8.57;;
43676;SDS011;29275;48.800;18.102;2024-03-23T03:49:47;13.32;;;10.48;;
43676;SDS011;29275;48.800;18.102;2024-03-23T03:52:49;11.98;;;9.07;;
43676;SDS011;29275;48.800;18.102;2024-03-23T03:55:50;12.65;;;8.68;;
43676;SDS011;29275;48.800;18.102;2024-03-23T03:58:52;13.68;;;9.45;;
43676;SDS011;29275;48.800;18.102;2024-03-23T04:01:53;21.38;;;14.30;;
43676;SDS011;29275;48.800;18.102;2024-03-23T04:04:55;19.55;;;10.35;;
43676;SDS011;29275;48.800;18.102;2024-03-23T04:07:56;20.77;;;12.10;;
43676;SDS011;29275;48.800;18.102;2024-03-23T04:10:58;16.75;;;10.88;;
43676;SDS011;29275;48.800;18.102;2024-03-23T04:14:02;17.45;;;12.20;;
43676;SDS011;29275;48.800;18.102;2024-03-23T04:17:03;13.10;;;9.40;;
43676;SDS011;29275;48.800;18.102;2024-03-23T04:20:05;18.77;;;12.23;;
43676;SDS011;29275;48.800;18.102;2024-03-23T04:23:10;13.65;;;10.20;;
43676;SDS011;29275;48.800;18.102;2024-03-23T04:26:11;13.95;;;9.65;;
43676;SDS011;29275;48.800;18.102;2024-03-23T04:29:13;13.82;;;9.77;;
43676;SDS011;29275;48.800;18.102;2024-03-23T04:32:15;16.67;;;9.68;;
43676;SDS011;29275;48.800;18.102;2024-03-23T04:35:17;16.17;;;9.82;;
43676;SDS011;29275;48.800;18.102;2024-03-23T04:38:21;13.75;;;9.65;;
43676;SDS011;29275;48.800;18.102;2024-03-23T04:41:22;14.25;;;9.70;;
43676;SDS011;29275;48.800;18.102;2024-03-23T04:44:24;13.18;;;10.07;;
43676;SDS011;29275;48.800;18.102;2024-03-23T04:47:26;14.85;;;9.15;;
43676;SDS011;29275;48.800;18.102;2024-03-23T04:50:27;13.18;;;9.50;;
43676;SDS011;29275;48.800;18.102;2024-03-23T04:53:29;14.68;;;10.25;;
43676;SDS011;29275;48.800;18.102;2024-03-23T04:56:31;13.40;;;8.70;;
43676;SDS011;29275;48.800;18.102;2024-03-23T04:59:33;16.40;;;10.05;;
43676;SDS011;29275;48.800;18.102;2024-03-23T05:02:34;18.95;;;9.30;;
43676;SDS011;29275;48.800;18.102;2024-03-23T05:05:36;15.02;;;10.20;;
43676;SDS011;29275;48.800;18.102;2024-03-23T05:08:37;15.68;;;10.27;;
43676;SDS011;29275;48.800;18.102;2024-03-23T05:11:39;17.52;;;11.70;;
43676;SDS011;29275;48.800;18.102;2024-03-23T05:14:40;12.95;;;9.38;;
43676;SDS011;29275;48.800;18.102;2024-03-23T05:17:41;11.20;;;7.88;;
43676;SDS011;29275;48.800;18.102;2024-03-23T05:20:43;12.68;;;9.23;;
43676;SDS011;29275;48.800;18.102;2024-03-23T05:23:45;10.85;;;7.95;;
43676;SDS011;29275;48.800;18.102;2024-03-23T05:26:46;11.20;;;8.02;;
43676;SDS011;29275;48.800;18.102;2024-03-23T05:29:48;11.90;;;8.48;;
43676;SDS011;29275;48.800;18.102;2024-03-23T05:32:49;12.95;;;8.88;;
43676;SDS011;29275;48.800;18.102;2024-03-23T05:35:58;13.00;;;8.02;;
43676;SDS011;29275;48.800;18.102;2024-03-23T05:39:00;16.25;;;8.43;;
43676;SDS011;29275;48.800;18.102;2024-03-23T05:42:01;12.05;;;7.88;;
43676;SDS011;29275;48.800;18.102;2024-03-23T05:45:03;50.00;;;25.23;;
43676;SDS011;29275;48.800;18.102;2024-03-23T05:48:07;26.05;;;15.73;;
43676;SDS011;29275;48.800;18.102;2024-03-23T05:51:09;25.13;;;15.13;;
43676;SDS011;29275;48.800;18.102;2024-03-23T05:54:10;23.98;;;16.40;;
43676;SDS011;29275;48.800;18.102;2024-03-23T05:57:12;27.52;;;17.38;;
43676;SDS011;29275;48.800;18.102;2024-03-23T06:00:14;25.42;;;16.42;;
43676;SDS011;29275;48.800;18.102;2024-03-23T06:03:18;30.10;;;16.38;;
43676;SDS011;29275;48.800;18.102;2024-03-23T06:06:20;21.15;;;14.32;;
43676;SDS011;29275;48.800;18.102;2024-03-23T06:09:22;39.05;;;20.42;;
43676;SDS011;29275;48.800;18.102;2024-03-23T06:12:23;94.10;;;44.72;;
43676;SDS011;29275;48.800;18.102;2024-03-23T06:15:25;43.08;;;23.65;;
43676;SDS011;29275;48.800;18.102;2024-03-23T06:18:28;28.98;;;17.85;;
43676;SDS011;29275;48.800;18.102;2024-03-23T06:21:29;25.80;;;15.98;;
43676;SDS011;29275;48.800;18.102;2024-03-23T06:24:31;18.30;;;12.25;;
43676;SDS011;29275;48.800;18.102;2024-03-23T06:27:32;18.10;;;12.32;;
43676;SDS011;29275;48.800;18.102;2024-03-23T06:30:34;33.15;;;20.38;;
43676;SDS011;29275;48.800;18.102;2024-03-23T06:33:35;57.05;;;32.47;;
43676;SDS011;29275;48.800;18.102;2024-03-23T06:36:37;34.50;;;22.38;;
43676;SDS011;29275;48.800;18.102;2024-03-23T06:39:39;26.75;;;18.45;;
43676;SDS011;29275;48.800;18.102;2024-03-23T06:42:41;26.50;;;17.17;;
43676;SDS011;29275;48.800;18.102;2024-03-23T06:45:42;27.15;;;15.40;;
43676;SDS011;29275;48.800;18.102;2024-03-23T06:48:47;21.33;;;14.30;;
43676;SDS011;29275;48.800;18.102;2024-03-23T06:51:48;20.52;;;13.32;;
43676;SDS011;29275;48.800;18.102;2024-03-23T06:54:50;24.02;;;13.55;;
43676;SDS011;29275;48.800;18.102;2024-03-23T06:57:52;23.80;;;15.15;;
43676;SDS011;29275;48.800;18.102;2024-03-23T07:00:53;20.30;;;13.82;;
43676;SDS011;29275;48.800;18.102;2024-03-23T07:03:55;17.10;;;12.32;;
43676;SDS011;29275;48.800;18.102;2024-03-23T07:06:57;17.10;;;12.68;;
43676;SDS011;29275;48.800;18.102;2024-03-23T07:09:58;21.35;;;13.23;;
43676;SDS011;29275;48.800;18.102;2024-03-23T07:13:00;19.30;;;14.00;;
43676;SDS011;29275;48.800;18.102;2024-03-23T07:16:01;17.77;;;13.48;;
43676;SDS011;29275;48.800;18.102;2024-03-23T07:19:03;20.52;;;13.93;;
43676;SDS011;29275;48.800;18.102;2024-03-23T07:22:05;18.30;;;12.70;;
43676;SDS011;29275;48.800;18.102;2024-03-23T07:25:07;17.63;;;11.95;;
43676;SDS011;29275;48.800;18.102;2024-03-23T07:28:08;21.67;;;11.95;;
43676;SDS011;29275;48.800;18.102;2024-03-23T07:31:13;17.75;;;12.23;;
43676;SDS011;29275;48.800;18.102;2024-03-23T07:34:15;46.35;;;13.32;;
43676;SDS011;29275;48.800;18.102;2024-03-23T07:37:17;15.45;;;11.30;;
43676;SDS011;29275;48.800;18.102;2024-03-23T07:40:18;18.23;;;12.27;;
43676;SDS011;29275;48.800;18.102;2024-03-23T07:43:20;18.92;;;13.88;;
43676;SDS011;29275;48.800;18.102;2024-03-23T07:46:21;22.65;;;15.82;;
43676;SDS011;29275;48.800;18.102;2024-03-23T07:49:23;21.58;;;13.82;;
43676;SDS011;29275;48.800;18.102;2024-03-23T07:52:27;19.77;;;14.00;;
43676;SDS011;29275;48.800;18.102;2024-03-23T07:55:29;18.15;;;13.25;;
43676;SDS011;29275;48.800;18.102;2024-03-23T07:58:31;20.63;;;13.18;;
43676;SDS011;29275;48.800;18.102;2024-03-23T08:01:33;18.75;;;13.57;;
43676;SDS011;29275;48.800;18.102;2024-03-23T08:04:37;19.88;;;14.25;;
43676;SDS011;29275;48.800;18.102;2024-03-23T08:07:41;18.55;;;13.18;;
43676;SDS011;29275;48.800;18.102;2024-03-23T08:10:50;17.52;;;13.02;;
43676;SDS011;29275;48.800;18.102;2024-03-23T08:13:52;19.77;;;13.13;;
43676;SDS011;29275;48.800;18.102;2024-03-23T08:16:54;18.80;;;13.05;;
43676;SDS011;29275;48.800;18.102;2024-03-23T08:19:55;17.80;;;12.18;;
43676;SDS011;29275;48.800;18.102;2024-03-23T08:23:00;20.52;;;12.88;;
43676;SDS011;29275;48.800;18.102;2024-03-23T08:26:05;21.17;;;14.00;;
43676;SDS011;29275;48.800;18.102;2024-03-23T08:29:12;18.50;;;13.70;;
43676;SDS011;29275;48.800;18.102;2024-03-23T08:32:21;18.63;;;12.77;;
43676;SDS011;29275;48.800;18.102;2024-03-23T08:35:23;19.52;;;13.45;;
43676;SDS011;29275;48.800;18.102;2024-03-23T08:38:24;22.73;;;13.52;;
43676;SDS011;29275;48.800;18.102;2024-03-23T08:41:29;17.75;;;13.35;;
43676;SDS011;29275;48.800;18.102;2024-03-23T08:44:30;21.85;;;13.93;;
43676;SDS011;29275;48.800;18.102;2024-03-23T08:47:33;20.00;;;14.10;;
43676;SDS011;29275;48.800;18.102;2024-03-23T08:50:35;19.05;;;14.05;;
43676;SDS011;29275;48.800;18.102;2024-03-23T08:53:37;18.42;;;12.82;;
43676;SDS011;29275;48.800;18.102;2024-03-23T08:56:39;17.85;;;11.95;;
43676;SDS011;29275;48.800;18.102;2024-03-23T08:59:40;20.50;;;12.13;;
43676;SDS011;29275;48.800;18.102;2024-03-23T09:02:47;16.48;;;11.98;;
43676;SDS011;29275;48.800;18.102;2024-03-23T09:05:49;15.80;;;10.73;;
43676;SDS011;29275;48.800;18.102;2024-03-23T09:08:51;18.48;;;12.40;;
43676;SDS011;29275;48.800;18.102;2024-03-23T09:11:52;18.17;;;12.90;;
43676;SDS011;29275;48.800;18.102;2024-03-23T09:14:54;20.15;;;12.20;;
43676;SDS011;29275;48.800;18.102;2024-03-23T09:17:56;17.67;;;12.32;;
43676;SDS011;29275;48.800;18.102;2024-03-23T09:21:00;18.35;;;11.98;;
43676;SDS011;29275;48.800;18.102;2024-03-23T09:24:01;19.02;;;11.88;;
43676;SDS011;29275;48.800;18.102;2024-03-23T09:27:03;15.38;;;10.23;;
43676;SDS011;29275;48.800;18.102;2024-03-23T09:30:05;16.88;;;11.55;;
43676;SDS011;29275;48.800;18.102;2024-03-23T09:33:07;16.77;;;12.15;;
43676;SDS011;29275;48.800;18.102;2024-03-23T09:36:09;25.10;;;12.38;;
43676;SDS011;29275;48.800;18.102;2024-03-23T09:39:10;19.73;;;11.55;;
43676;SDS011;29275;48.800;18.102;2024-03-23T09:42:12;18.48;;;12.13;;
43676;SDS011;29275;48.800;18.102;2024-03-23T09:45:20;17.05;;;8.82;;
43676;SDS011;29275;48.800;18.102;2024-03-23T09:48:23;27.35;;;11.50;;
43676;SDS011;29275;48.800;18.102;2024-03-23T09:51:25;21.17;;;11.07;;
43676;SDS011;29275;48.800;18.102;2024-03-23T09:54:26;44.65;;;12.90;;
43676;SDS011;29275;48.800;18.102;2024-03-23T09:57:28;14.27;;;9.85;;
43676;SDS011;29275;48.800;18.102;2024-03-23T10:00:29;16.95;;;10.35;;
43676;SDS011;29275;48.800;18.102;2024-03-23T10:03:31;15.30;;;9.90;;
43676;SDS011;29275;48.800;18.102;2024-03-23T10:06:32;26.42;;;10.82;;
43676;SDS011;29275;48.800;18.102;2024-03-23T10:09:35;19.85;;;11.13;;
43676;SDS011;29275;48.800;18.102;2024-03-23T10:12:40;44.70;;;10.77;;
43676;SDS011;29275;48.800;18.102;2024-03-23T10:15:46;16.35;;;9.40;;
43676;SDS011;29275;48.800;18.102;2024-03-23T10:18:56;11.68;;;9.50;;
43676;SDS011;29275;48.800;18.102;2024-03-23T10:21:59;15.23;;;10.05;;
43676;SDS011;29275;48.800;18.102;2024-03-23T10:25:10;18.27;;;10.30;;
43676;SDS011;29275;48.800;18.102;2024-03-23T10:28:14;24.75;;;12.02;;
43676;SDS011;29275;48.800;18.102;2024-03-23T10:31:16;16.05;;;11.02;;
43676;SDS011;29275;48.800;18.102;2024-03-23T10:34:24;12.82;;;10.35;;
43676;SDS011;29275;48.800;18.102;2024-03-23T10:37:26;13.55;;;9.70;;
43676;SDS011;29275;48.800;18.102;2024-03-23T10:40:28;16.55;;;10.98;;
43676;SDS011;29275;48.800;18.102;2024-03-23T10:43:31;14.82;;;11.25;;
43676;SDS011;29275;48.800;18.102;2024-03-23T10:46:34;16.38;;;10.75;;
43676;SDS011;29275;48.800;18.102;2024-03-23T10:49:38;14.85;;;10.40;;
43676;SDS011;29275;48.800;18.102;2024-03-23T10:52:41;17.25;;;10.68;;
43676;SDS011;29275;48.800;18.102;2024-03-23T10:55:49;21.73;;;9.95;;
43676;SDS011;29275;48.800;18.102;2024-03-23T10:58:51;23.42;;;9.63;;
43676;SDS011;29275;48.800;18.102;2024-03-23T11:01:57;23.98;;;10.80;;
43676;SDS011;29275;48.800;18.102;2024-03-23T11:05:00;19.63;;;8.48;;
43676;SDS011;29275;48.800;18.102;2024-03-23T11:08:29;11.65;;;8.05;;
43676;SDS011;29275;48.800;18.102;2024-03-23T11:11:35;11.32;;;8.43;;
43676;SDS011;29275;48.800;18.102;2024-03-23T11:14:36;13.30;;;8.45;;
43676;SDS011;29275;48.800;18.102;2024-03-23T11:17:38;23.42;;;10.57;;
43676;SDS011;29275;48.800;18.102;2024-03-23T11:20:39;13.80;;;8.63;;
43676;SDS011;29275;48.800;18.102;2024-03-23T11:23:41;15.63;;;9.43;;
43676;SDS011;29275;48.800;18.102;2024-03-23T11:26:42;15.15;;;8.52;;
43676;SDS011;29275;48.800;18.102;2024-03-23T11:29:44;10.48;;;7.80;;
43676;SDS011;29275;48.800;18.102;2024-03-23T11:32:46;17.13;;;9.45;;
43676;SDS011;29275;48.800;18.102;2024-03-23T11:35:49;21.83;;;9.00;;
43676;SDS011;29275;48.800;18.102;2024-03-23T11:42:17;26.55;;;9.52;;
43676;SDS011;29275;48.800;18.102;2024-03-23T11:45:18;31.33;;;10.23;;
43676;SDS011;29275;48.800;18.102;2024-03-23T11:48:21;13.52;;;8.40;;
43676;SDS011;29275;48.800;18.102;2024-03-23T11:51:23;9.77;;;7.55;;
43676;SDS011;29275;48.800;18.102;2024-03-23T11:54:26;183.15;;;20.35;;
43676;SDS011;29275;48.800;18.102;2024-03-23T11:57:27;17.13;;;8.70;;
43676;SDS011;29275;48.800;18.102;2024-03-23T12:00:29;11.00;;;7.72;;
43676;SDS011;29275;48.800;18.102;2024-03-23T12:03:31;12.68;;;7.97;;
43676;SDS011;29275;48.800;18.102;2024-03-23T12:06:34;14.77;;;9.23;;
43676;SDS011;29275;48.800;18.102;2024-03-23T12:09:36;12.82;;;8.63;;
43676;SDS011;29275;48.800;18.102;2024-03-23T12:12:37;14.02;;;7.88;;
43676;SDS011;29275;48.800;18.102;2024-03-23T12:15:39;43.17;;;8.98;;
43676;SDS011;29275;48.800;18.102;2024-03-23T12:18:41;11.25;;;8.55;;
43676;SDS011;29275;48.800;18.102;2024-03-23T12:21:43;15.95;;;7.60;;
43676;SDS011;29275;48.800;18.102;2024-03-23T12:24:46;14.88;;;7.18;;
43676;SDS011;29275;48.800;18.102;2024-03-23T12:27:47;10.93;;;7.45;;
43676;SDS011;29275;48.800;18.102;2024-03-23T12:30:49;11.95;;;8.02;;
43676;SDS011;29275;48.800;18.102;2024-03-23T12:33:51;13.60;;;8.57;;
43676;SDS011;29275;48.800;18.102;2024-03-23T12:40:25;19.20;;;7.30;;
43676;SDS011;29275;48.800;18.102;2024-03-23T12:43:28;12.55;;;7.53;;
43676;SDS011;29275;48.800;18.102;2024-03-23T12:46:30;7.88;;;5.65;;
43676;SDS011;29275;48.800;18.102;2024-03-23T12:49:32;9.32;;;6.93;;
43676;SDS011;29275;48.800;18.102;2024-03-23T12:52:33;9.32;;;6.18;;
43676;SDS011;29275;48.800;18.102;2024-03-23T12:55:35;8.65;;;6.30;;
43676;SDS011;29275;48.800;18.102;2024-03-23T12:58:37;11.82;;;6.30;;
43676;SDS011;29275;48.800;18.102;2024-03-23T13:01:38;8.40;;;6.13;;
43676;SDS011;29275;48.800;18.102;2024-03-23T13:04:40;11.38;;;7.13;;
43676;SDS011;29275;48.800;18.102;2024-03-23T13:07:42;9.35;;;6.03;;
43676;SDS011;29275;48.800;18.102;2024-03-23T13:10:43;11.90;;;5.95;;
43676;SDS011;29275;48.800;18.102;2024-03-23T13:13:46;12.68;;;5.93;;
43676;SDS011;29275;48.800;18.102;2024-03-23T13:16:47;8.43;;;6.13;;
43676;SDS011;29275;48.800;18.102;2024-03-23T13:40:05;14.93;;;7.60;;
43676;SDS011;29275;48.800;18.102;2024-03-23T13:43:07;14.30;;;8.63;;
43676;SDS011;29275;48.800;18.102;2024-03-23T13:46:09;10.13;;;8.18;;
43676;SDS011;29275;48.800;18.102;2024-03-23T13:49:23;15.02;;;9.07;;
43676;SDS011;29275;48.800;18.102;2024-03-23T13:52:29;13.82;;;8.88;;
43676;SDS011;29275;48.800;18.102;2024-03-23T13:55:32;14.32;;;7.47;;
43676;SDS011;29275;48.800;18.102;2024-03-23T13:58:34;12.90;;;9.20;;
43676;SDS011;29275;48.800;18.102;2024-03-23T14:01:36;12.55;;;8.43;;
43676;SDS011;29275;48.800;18.102;2024-03-23T14:04:37;14.93;;;8.32;;
43676;SDS011;29275;48.800;18.102;2024-03-23T14:07:39;20.75;;;9.85;;
43676;SDS011;29275;48.800;18.102;2024-03-23T14:10:40;12.25;;;2.50;;
43676;SDS011;29275;48.800;18.102;2024-03-23T14:13:42;110.57;;;6.88;;
43676;SDS011;29275;48.800;18.102;2024-03-23T14:16:44;33.67;;;2.03;;
43676;SDS011;29275;48.800;18.102;2024-03-23T14:19:45;15.02;;;1.55;;
43676;SDS011;29275;48.800;18.102;2024-03-23T14:22:46;22.67;;;1.30;;
43676;SDS011;29275;48.800;18.102;2024-03-23T14:25:48;42.50;;;2.30;;
43676;SDS011;29275;48.800;18.102;2024-03-23T14:28:50;4.90;;;0.60;;
43676;SDS011;29275;48.800;18.102;2024-03-23T14:31:51;2.60;;;0.43;;
43676;SDS011;29275;48.800;18.102;2024-03-23T14:34:53;4.47;;;0.50;;
43676;SDS011;29275;48.800;18.102;2024-03-23T14:37:55;3.30;;;0.47;;
43676;SDS011;29275;48.800;18.102;2024-03-23T14:41:00;0.55;;;0.40;;
43676;SDS011;29275;48.800;18.102;2024-03-23T14:44:03;1.75;;;0.50;;
43676;SDS011;29275;48.800;18.102;2024-03-23T14:47:05;1.58;;;0.50;;
43676;SDS011;29275;48.800;18.102;2024-03-23T14:50:06;1.27;;;0.40;;
43676;SDS011;29275;48.800;18.102;2024-03-23T14:53:09;2.40;;;0.40;;
43676;SDS011;29275;48.800;18.102;2024-03-23T14:56:11;1.50;;;0.52;;
43676;SDS011;29275;48.800;18.102;2024-03-23T14:59:16;0.77;;;0.40;;
43676;SDS011;29275;48.800;18.102;2024-03-23T15:02:17;2.28;;;0.40;;
43676;SDS011;29275;48.800;18.102;2024-03-23T15:05:19;1.42;;;0.70;;
43676;SDS011;29275;48.800;18.102;2024-03-23T15:08:22;2.58;;;0.40;;
43676;SDS011;29275;48.800;18.102;2024-03-23T15:11:23;4.07;;;0.57;;
43676;SDS011;29275;48.800;18.102;2024-03-23T15:14:25;3.47;;;0.40;;
43676;SDS011;29275;48.800;18.102;2024-03-23T15:17:27;1.20;;;0.57;;
43676;SDS011;29275;48.800;18.102;2024-03-23T15:20:28;1.88;;;0.43;;
43676;SDS011;29275;48.800;18.102;2024-03-23T15:23:30;2.85;;;0.50;;
43676;SDS011;29275;48.800;18.102;2024-03-23T15:26:31;0.70;;;0.40;;
43676;SDS011;29275;48.800;18.102;2024-03-23T15:29:33;0.57;;;0.30;;
43676;SDS011;29275;48.800;18.102;2024-03-23T15:32:35;0.98;;;0.50;;
43676;SDS011;29275;48.800;18.102;2024-03-23T15:35:37;1.92;;;0.52;;
43676;SDS011;29275;48.800;18.102;2024-03-23T15:38:38;0.73;;;0.32;;
43676;SDS011;29275;48.800;18.102;2024-03-23T15:41:40;2.40;;;0.40;;
43676;SDS011;29275;48.800;18.102;2024-03-23T15:44:41;3.20;;;0.50;;
43676;SDS011;29275;48.800;18.102;2024-03-23T15:47:43;1.48;;;0.40;;
43676;SDS011;29275;48.800;18.102;2024-03-23T15:50:51;0.93;;;0.40;;
43676;SDS011;29275;48.800;18.102;2024-03-23T15:53:56;1.00;;;0.40;;
43676;SDS011;29275;48.800;18.102;2024-03-23T15:56:58;3.63;;;0.80;;
43676;SDS011;29275;48.800;18.102;2024-03-23T15:59:59;1.27;;;0.50;;
43676;SDS011;29275;48.800;18.102;2024-03-23T16:03:01;1.38;;;0.50;;
43676;SDS011;29275;48.800;18.102;2024-03-23T16:06:03;3.08;;;0.52;;
43676;SDS011;29275;48.800;18.102;2024-03-23T16:09:06;2.88;;;0.52;;
43676;SDS011;29275;48.800;18.102;2024-03-23T16:12:08;2.20;;;0.43;;
43676;SDS011;29275;48.800;18.102;2024-03-23T16:15:10;2.33;;;0.50;;
43676;SDS011;29275;48.800;18.102;2024-03-23T16:18:11;1.90;;;0.65;;
43676;SDS011;29275;48.800;18.102;2024-03-23T16:21:13;0.90;;;0.45;;
43676;SDS011;29275;48.800;18.102;2024-03-23T16:24:14;1.88;;;0.50;;
43676;SDS011;29275;48.800;18.102;2024-03-23T16:27:16;1.33;;;0.65;;
43676;SDS011;29275;48.800;18.102;2024-03-23T16:30:17;1.00;;;0.50;;
43676;SDS011;29275;48.800;18.102;2024-03-23T16:33:19;2.05;;;0.57;;
43676;SDS011;29275;48.800;18.102;2024-03-23T16:36:21;1.05;;;0.50;;
43676;SDS011;29275;48.800;18.102;2024-03-23T16:39:22;1.65;;;0.50;;
43676;SDS011;29275;48.800;18.102;2024-03-23T16:42:24;1.65;;;0.50;;
43676;SDS011;29275;48.800;18.102;2024-03-23T16:45:25;1.65;;;0.68;;
43676;SDS011;29275;48.800;18.102;2024-03-23T16:48:27;1.45;;;0.73;;
43676;SDS011;29275;48.800;18.102;2024-03-23T16:51:29;1.35;;;0.55;;
43676;SDS011;29275;48.800;18.102;2024-03-23T16:54:30;1.33;;;0.57;;
43676;SDS011;29275;48.800;18.102;2024-03-23T16:57:32;0.73;;;0.50;;
43676;SDS011;29275;48.800;18.102;2024-03-23T17:00:34;1.30;;;0.45;;
43676;SDS011;29275;48.800;18.102;2024-03-23T17:03:36;2.63;;;0.50;;
43676;SDS011;29275;48.800;18.102;2024-03-23T17:06:38;2.03;;;0.50;;
43676;SDS011;29275;48.800;18.102;2024-03-23T17:09:46;2.55;;;0.40;;
43676;SDS011;29275;48.800;18.102;2024-03-23T17:12:48;1.83;;;0.50;;
43676;SDS011;29275;48.800;18.102;2024-03-23T17:15:50;1.75;;;0.52;;
43676;SDS011;29275;48.800;18.102;2024-03-23T17:18:51;2.63;;;0.65;;
43676;SDS011;29275;48.800;18.102;2024-03-23T17:21:53;2.40;;;1.30;;
43676;SDS011;29275;48.800;18.102;2024-03-23T17:24:55;3.22;;;0.73;;
43676;SDS011;29275;48.800;18.102;2024-03-23T17:27:56;1.80;;;0.70;;
43676;SDS011;29275;48.800;18.102;2024-03-23T17:30:58;2.53;;;1.20;;
43676;SDS011;29275;48.800;18.102;2024-03-23T17:33:59;2.47;;;1.15;;
43676;SDS011;29275;48.800;18.102;2024-03-23T17:37:01;2.80;;;1.02;;
43676;SDS011;29275;48.800;18.102;2024-03-23T17:40:02;2.78;;;1.10;;
43676;SDS011;29275;48.800;18.102;2024-03-23T17:43:05;2.22;;;1.00;;
43676;SDS011;29275;48.800;18.102;2024-03-23T17:46:06;3.95;;;1.13;;
43676;SDS011;29275;48.800;18.102;2024-03-23T17:49:08;1.60;;;0.57;;
43676;SDS011;29275;48.800;18.102;2024-03-23T17:52:10;2.47;;;1.60;;
43676;SDS011;29275;48.800;18.102;2024-03-23T17:55:11;1.98;;;1.10;;
43676;SDS011;29275;48.800;18.102;2024-03-23T17:58:13;4.93;;;1.40;;
43676;SDS011;29275;48.800;18.102;2024-03-23T18:01:15;1.15;;;0.60;;
43676;SDS011;29275;48.800;18.102;2024-03-23T18:04:17;1.65;;;0.88;;
43676;SDS011;29275;48.800;18.102;2024-03-23T18:07:19;1.85;;;1.05;;
43676;SDS011;29275;48.800;18.102;2024-03-23T18:10:20;1.80;;;0.98;;
43676;SDS011;29275;48.800;18.102;2024-03-23T18:13:22;2.25;;;0.93;;
43676;SDS011;29275;48.800;18.102;2024-03-23T18:16:24;3.63;;;1.70;;
43676;SDS011;29275;48.800;18.102;2024-03-23T18:19:25;1.75;;;0.80;;
43676;SDS011;29275;48.800;18.102;2024-03-23T18:22:27;2.08;;;0.90;;
43676;SDS011;29275;48.800;18.102;2024-03-23T18:25:28;2.10;;;1.20;;
43676;SDS011;29275;48.800;18.102;2024-03-23T18:28:30;3.40;;;1.55;;
43676;SDS011;29275;48.800;18.102;2024-03-23T18:31:32;5.75;;;2.53;;
43676;SDS011;29275;48.800;18.102;2024-03-23T18:34:34;3.67;;;2.28;;
43676;SDS011;29275;48.800;18.102;2024-03-23T18:37:35;13.10;;;6.22;;
43676;SDS011;29275;48.800;18.102;2024-03-23T18:40:37;21.92;;;9.27;;
43676;SDS011;29275;48.800;18.102;2024-03-23T18:43:38;9.93;;;5.03;;
43676;SDS011;29275;48.800;18.102;2024-03-23T18:46:40;17.23;;;9.85;;
43676;SDS011;29275;48.800;18.102;2024-03-23T18:49:41;6.88;;;2.08;;
43676;SDS011;29275;48.800;18.102;2024-03-23T18:52:43;4.03;;;2.42;;
43676;SDS011;29275;48.800;18.102;2024-03-23T18:55:51;3.65;;;1.83;;
43676;SDS011;29275;48.800;18.102;2024-03-23T18:58:54;2.08;;;1.50;;
43676;SDS011;29275;48.800;18.102;2024-03-23T19:01:56;4.18;;;2.50;;